sensor_id;sensor_type;location;lat;lon;timestamp;temperature;humidity
55648;DHT22;45266;48.756;9.246;2022-12-18T00:00:05;-9.90;99.90
55648;DHT22;45266;48.756;9.246;2022-12-18T00:01:16;-9.90;99.90
55648;DHT22;45266;48.756;9.246;2022-12-18T00:02:18;-9.80;99.90
55648;DHT22;45266;48.756;9.246;2022-12-18T00:03:20;-9.80;99.90
55648;DHT22;45266;48.756;9.246;2022-12-18T00:04:23;-9.80;99.90
55648;DHT22;45266;48.756;9.246;2022-12-18T00:05:25;-9.70;99.90
55648;DHT22;45266;48.756;9.246;2022-12-18T00:06:28;-9.70;99.90
55648;DHT22;45266;48.756;9.246;2022-12-18T00:07:30;-9.80;99.90
55648;DHT22;45266;48.756;9.246;2022-12-18T00:08:32;-9.80;99.90
55648;DHT22;45266;48.756;9.246;2022-12-18T00:09:35;-9.80;99.90
55648;DHT22;45266;48.756;9.246;2022-12-18T00:10:40;-9.90;99.90
55648;DHT22;45266;48.756;9.246;2022-12-18T00:11:42;-9.90;99.90
55648;DHT22;45266;48.756;9.246;2022-12-18T00:12:44;-10.00;99.90
55648;DHT22;45266;48.756;9.246;2022-12-18T00:13:47;-10.00;99.90
55648;DHT22;45266;48.756;9.246;2022-12-18T00:14:49;-10.00;99.90
55648;DHT22;45266;48.756;9.246;2022-12-18T00:15:50;-10.00;99.90
55648;DHT22;45266;48.756;9.246;2022-12-18T00:16:57;-9.90;99.90
55648;DHT22;45266;48.756;9.246;2022-12-18T00:18:02;-9.90;99.90
55648;DHT22;45266;48.756;9.246;2022-12-18T00:19:06;-9.90;99.90
55648;DHT22;45266;48.756;9.246;2022-12-18T00:20:09;-9.90;99.90
55648;DHT22;45266;48.756;9.246;2022-12-18T00:21:12;-9.90;99.90
55648;DHT22;45266;48.756;9.246;2022-12-18T00:22:14;-10.00;99.90
55648;DHT22;45266;48.756;9.246;2022-12-18T00:23:15;-10.00;99.90
55648;DHT22;45266;48.756;9.246;2022-12-18T00:24:17;-10.00;99.90
55648;DHT22;45266;48.756;9.246;2022-12-18T00:25:21;-10.10;99.90
55648;DHT22;45266;48.756;9.246;2022-12-18T00:26:25;-10.10;99.90
55648;DHT22;45266;48.756;9.246;2022-12-18T00:27:27;-10.10;99.90
55648;DHT22;45266;48.756;9.246;2022-12-18T00:28:29;-10.10;99.90
55648;DHT22;45266;48.756;9.246;2022-12-18T00:29:30;-10.10;99.90
55648;DHT22;45266;48.756;9.246;2022-12-18T00:30:32;-10.10;99.90
55648;DHT22;45266;48.756;9.246;2022-12-18T00:31:34;-10.00;99.90
55648;DHT22;45266;48.756;9.246;2022-12-18T00:32:36;-10.10;99.90
55648;DHT22;45266;48.756;9.246;2022-12-18T00:33:38;-10.10;99.90
55648;DHT22;45266;48.756;9.246;2022-12-18T00:34:41;-10.10;99.90
55648;DHT22;45266;48.756;9.246;2022-12-18T00:35:42;-10.10;99.90
55648;DHT22;45266;48.756;9.246;2022-12-18T00:36:47;-10.10;99.90
55648;DHT22;45266;48.756;9.246;2022-12-18T00:37:49;-10.10;99.90
55648;DHT22;45266;48.756;9.246;2022-12-18T00:38:52;-10.10;99.90
55648;DHT22;45266;48.756;9.246;2022-12-18T00:39:55;-10.10;99.90
55648;DHT22;45266;48.756;9.246;2022-12-18T00:40:56;-10.10;99.90
55648;DHT22;45266;48.756;9.246;2022-12-18T00:41:58;-10.10;99.90
55648;DHT22;45266;48.756;9.246;2022-12-18T00:43:18;-10.10;99.90
55648;DHT22;45266;48.756;9.246;2022-12-18T00:44:20;-10.10;99.90
55648;DHT22;45266;48.756;9.246;2022-12-18T00:45:24;-10.10;99.90
55648;DHT22;45266;48.756;9.246;2022-12-18T00:46:26;-10.10;99.90
55648;DHT22;45266;48.756;9.246;2022-12-18T00:47:28;-10.20;99.90
55648;DHT22;45266;48.756;9.246;2022-12-18T00:48:30;-10.20;99.90
55648;DHT22;45266;48.756;9.246;2022-12-18T00:49:32;-10.20;99.90
55648;DHT22;45266;48.756;9.246;2022-12-18T00:50:35;-10.20;99.90
55648;DHT22;45266;48.756;9.246;2022-12-18T00:51:39;-10.20;99.90
55648;DHT22;45266;48.756;9.246;2022-12-18T00:52:41;-10.20;99.90
55648;DHT22;45266;48.756;9.246;2022-12-18T00:53:44;-10.20;99.90
55648;DHT22;45266;48.756;9.246;2022-12-18T00:54:49;-10.20;99.90
55648;DHT22;45266;48.756;9.246;2022-12-18T00:55:50;-10.20;99.90
55648;DHT22;45266;48.756;9.246;2022-12-18T00:56:52;-10.10;99.90
55648;DHT22;45266;48.756;9.246;2022-12-18T00:57:54;-10.20;99.90
55648;DHT22;45266;48.756;9.246;2022-12-18T00:58:56;-10.20;99.90
55648;DHT22;45266;48.756;9.246;2022-12-18T00:59:57;-10.20;99.90
55648;DHT22;45266;48.756;9.246;2022-12-18T01:00:59;-10.20;99.90
55648;DHT22;45266;48.756;9.246;2022-12-18T01:02:01;-10.20;99.90
55648;DHT22;45266;48.756;9.246;2022-12-18T01:03:03;-10.20;99.90
55648;DHT22;45266;48.756;9.246;2022-12-18T01:04:05;-10.20;99.90
55648;DHT22;45266;48.756;9.246;2022-12-18T01:05:08;-10.10;99.90
55648;DHT22;45266;48.756;9.246;2022-12-18T01:06:12;-10.20;99.90
55648;DHT22;45266;48.756;9.246;2022-12-18T01:07:14;-10.20;99.90
55648;DHT22;45266;48.756;9.246;2022-12-18T01:08:16;-10.20;99.90
55648;DHT22;45266;48.756;9.246;2022-12-18T01:09:18;-10.30;99.90
55648;DHT22;45266;48.756;9.246;2022-12-18T01:10:19;-10.30;99.90
55648;DHT22;45266;48.756;9.246;2022-12-18T01:11:21;-10.30;99.90
55648;DHT22;45266;48.756;9.246;2022-12-18T01:12:23;-10.30;99.90
55648;DHT22;45266;48.756;9.246;2022-12-18T01:13:25;-10.30;99.90
55648;DHT22;45266;48.756;9.246;2022-12-18T01:14:27;-10.30;99.90
55648;DHT22;45266;48.756;9.246;2022-12-18T01:15:28;-10.30;99.90
55648;DHT22;45266;48.756;9.246;2022-12-18T01:16:30;-10.30;99.90
55648;DHT22;45266;48.756;9.246;2022-12-18T01:17:33;-10.30;99.90
55648;DHT22;45266;48.756;9.246;2022-12-18T01:18:35;-10.20;99.90
55648;DHT22;45266;48.756;9.246;2022-12-18T01:19:37;-10.20;99.90
55648;DHT22;45266;48.756;9.246;2022-12-18T01:20:39;-10.20;99.90
55648;DHT22;45266;48.756;9.246;2022-12-18T01:21:40;-10.20;99.90
55648;DHT22;45266;48.756;9.246;2022-12-18T01:22:42;-10.20;99.90
55648;DHT22;45266;48.756;9.246;2022-12-18T01:23:44;-10.20;99.90
55648;DHT22;45266;48.756;9.246;2022-12-18T01:24:45;-10.20;99.90
55648;DHT22;45266;48.756;9.246;2022-12-18T01:25:48;-10.20;99.90
55648;DHT22;45266;48.756;9.246;2022-12-18T01:26:49;-10.20;99.90
55648;DHT22;45266;48.756;9.246;2022-12-18T01:27:51;-10.10;99.90
55648;DHT22;45266;48.756;9.246;2022-12-18T01:28:55;-10.10;99.90
55648;DHT22;45266;48.756;9.246;2022-12-18T01:29:57;-10.00;99.90
55648;DHT22;45266;48.756;9.246;2022-12-18T01:31:13;-10.00;99.90
55648;DHT22;45266;48.756;9.246;2022-12-18T01:32:15;-10.00;99.90
55648;DHT22;45266;48.756;9.246;2022-12-18T01:33:17;-9.90;99.90
55648;DHT22;45266;48.756;9.246;2022-12-18T01:34:18;-10.00;99.90
55648;DHT22;45266;48.756;9.246;2022-12-18T01:35:20;-9.90;99.90
55648;DHT22;45266;48.756;9.246;2022-12-18T01:36:24;-9.90;99.90
55648;DHT22;45266;48.756;9.246;2022-12-18T01:37:26;-10.00;99.90
55648;DHT22;45266;48.756;9.246;2022-12-18T01:38:28;-10.00;99.90
55648;DHT22;45266;48.756;9.246;2022-12-18T01:39:31;-10.10;99.90
55648;DHT22;45266;48.756;9.246;2022-12-18T01:40:36;-10.00;99.90
55648;DHT22;45266;48.756;9.246;2022-12-18T01:41:38;-10.00;99.90
55648;DHT22;45266;48.756;9.246;2022-12-18T01:42:59;-10.00;99.90
55648;DHT22;45266;48.756;9.246;2022-12-18T01:44:00;-10.00;99.90
55648;DHT22;45266;48.756;9.246;2022-12-18T01:46:20;-10.10;99.90
55648;DHT22;45266;48.756;9.246;2022-12-18T01:47:38;-10.10;99.90
55648;DHT22;45266;48.756;9.246;2022-12-18T01:48:40;-10.10;99.90
55648;DHT22;45266;48.756;9.246;2022-12-18T01:49:43;-10.10;99.90
55648;DHT22;45266;48.756;9.246;2022-12-18T01:50:44;-10.20;99.90
55648;DHT22;45266;48.756;9.246;2022-12-18T01:51:46;-10.20;99.90
55648;DHT22;45266;48.756;9.246;2022-12-18T01:53:01;-10.30;99.90
55648;DHT22;45266;48.756;9.246;2022-12-18T01:54:05;-10.30;99.90
55648;DHT22;45266;48.756;9.246;2022-12-18T01:55:08;-10.30;99.90
55648;DHT22;45266;48.756;9.246;2022-12-18T01:56:13;-10.30;99.90
55648;DHT22;45266;48.756;9.246;2022-12-18T01:57:16;-10.30;99.90
55648;DHT22;45266;48.756;9.246;2022-12-18T01:58:20;-10.20;99.90
55648;DHT22;45266;48.756;9.246;2022-12-18T01:59:23;-10.20;99.90
55648;DHT22;45266;48.756;9.246;2022-12-18T02:00:26;-10.20;99.90
55648;DHT22;45266;48.756;9.246;2022-12-18T02:01:29;-10.20;99.90
55648;DHT22;45266;48.756;9.246;2022-12-18T02:02:32;-10.20;99.90
55648;DHT22;45266;48.756;9.246;2022-12-18T02:03:34;-10.30;99.90
55648;DHT22;45266;48.756;9.246;2022-12-18T02:04:36;-10.30;99.90
55648;DHT22;45266;48.756;9.246;2022-12-18T02:05:49;-10.30;99.90
55648;DHT22;45266;48.756;9.246;2022-12-18T02:07:12;-10.30;99.90
55648;DHT22;45266;48.756;9.246;2022-12-18T02:08:19;-10.40;99.90
55648;DHT22;45266;48.756;9.246;2022-12-18T02:09:36;-10.40;99.90
55648;DHT22;45266;48.756;9.246;2022-12-18T02:11:05;-10.40;99.90
55648;DHT22;45266;48.756;9.246;2022-12-18T02:12:31;-10.30;99.90
55648;DHT22;45266;48.756;9.246;2022-12-18T02:15:27;-10.20;99.90
55648;DHT22;45266;48.756;9.246;2022-12-18T02:18:07;-10.10;99.90
55648;DHT22;45266;48.756;9.246;2022-12-18T02:20:39;-10.10;99.90
55648;DHT22;45266;48.756;9.246;2022-12-18T02:22:07;-10.00;99.90
55648;DHT22;45266;48.756;9.246;2022-12-18T02:24:35;-10.00;99.90
55648;DHT22;45266;48.756;9.246;2022-12-18T02:27:09;-10.10;99.90
55648;DHT22;45266;48.756;9.246;2022-12-18T02:28:15;-10.20;99.90
55648;DHT22;45266;48.756;9.246;2022-12-18T02:29:25;-10.20;99.90
55648;DHT22;45266;48.756;9.246;2022-12-18T02:30:31;-10.20;99.90
55648;DHT22;45266;48.756;9.246;2022-12-18T02:32:06;-10.20;99.90
55648;DHT22;45266;48.756;9.246;2022-12-18T02:33:11;-10.20;99.90
55648;DHT22;45266;48.756;9.246;2022-12-18T02:34:14;-10.20;99.90
55648;DHT22;45266;48.756;9.246;2022-12-18T02:35:23;-10.20;99.90
55648;DHT22;45266;48.756;9.246;2022-12-18T02:36:27;-10.20;99.90
55648;DHT22;45266;48.756;9.246;2022-12-18T02:37:30;-10.20;99.90
55648;DHT22;45266;48.756;9.246;2022-12-18T02:38:35;-10.20;99.90
55648;DHT22;45266;48.756;9.246;2022-12-18T02:39:41;-10.10;99.90
55648;DHT22;45266;48.756;9.246;2022-12-18T02:40:44;-10.10;99.90
55648;DHT22;45266;48.756;9.246;2022-12-18T02:41:46;-10.10;99.90
55648;DHT22;45266;48.756;9.246;2022-12-18T02:42:48;-10.10;99.90
55648;DHT22;45266;48.756;9.246;2022-12-18T02:43:58;-10.10;99.90
55648;DHT22;45266;48.756;9.246;2022-12-18T02:45:00;-10.00;99.90
55648;DHT22;45266;48.756;9.246;2022-12-18T02:47:35;-9.90;99.90
55648;DHT22;45266;48.756;9.246;2022-12-18T02:48:38;-10.00;99.90
55648;DHT22;45266;48.756;9.246;2022-12-18T02:50:51;-10.00;99.90
55648;DHT22;45266;48.756;9.246;2022-12-18T02:52:17;-10.00;99.90
55648;DHT22;45266;48.756;9.246;2022-12-18T02:53:53;-10.00;99.90
55648;DHT22;45266;48.756;9.246;2022-12-18T02:55:23;-10.10;99.90
55648;DHT22;45266;48.756;9.246;2022-12-18T02:56:41;-10.00;99.90
55648;DHT22;45266;48.756;9.246;2022-12-18T02:58:23;-10.00;99.90
55648;DHT22;45266;48.756;9.246;2022-12-18T02:59:24;-9.90;99.90
55648;DHT22;45266;48.756;9.246;2022-12-18T03:00:44;-9.90;99.90
55648;DHT22;45266;48.756;9.246;2022-12-18T03:02:22;-9.90;99.90
55648;DHT22;45266;48.756;9.246;2022-12-18T03:04:47;-9.90;99.90
55648;DHT22;45266;48.756;9.246;2022-12-18T03:05:55;-10.00;99.90
55648;DHT22;45266;48.756;9.246;2022-12-18T03:07:01;-10.00;99.90
55648;DHT22;45266;48.756;9.246;2022-12-18T03:08:26;-10.00;99.90
55648;DHT22;45266;48.756;9.246;2022-12-18T03:09:32;-10.10;99.90
55648;DHT22;45266;48.756;9.246;2022-12-18T03:10:41;-10.10;99.90
55648;DHT22;45266;48.756;9.246;2022-12-18T03:11:46;-10.00;99.90
55648;DHT22;45266;48.756;9.246;2022-12-18T03:13:15;-10.00;99.90
55648;DHT22;45266;48.756;9.246;2022-12-18T03:14:21;-10.00;99.90
55648;DHT22;45266;48.756;9.246;2022-12-18T03:15:42;-10.00;99.90
55648;DHT22;45266;48.756;9.246;2022-12-18T03:16:47;-10.00;99.90
55648;DHT22;45266;48.756;9.246;2022-12-18T03:17:59;-10.00;99.90
55648;DHT22;45266;48.756;9.246;2022-12-18T03:19:25;-10.10;99.90
55648;DHT22;45266;48.756;9.246;2022-12-18T03:20:31;-10.10;99.90
55648;DHT22;45266;48.756;9.246;2022-12-18T03:21:38;-10.10;99.90
55648;DHT22;45266;48.756;9.246;2022-12-18T03:22:43;-10.10;99.90
55648;DHT22;45266;48.756;9.246;2022-12-18T03:23:49;-10.10;99.90
55648;DHT22;45266;48.756;9.246;2022-12-18T03:24:53;-10.20;99.90
55648;DHT22;45266;48.756;9.246;2022-12-18T03:26:00;-10.20;99.90
55648;DHT22;45266;48.756;9.246;2022-12-18T03:27:13;-10.30;99.90
55648;DHT22;45266;48.756;9.246;2022-12-18T03:28:21;-10.30;99.90
55648;DHT22;45266;48.756;9.246;2022-12-18T03:30:33;-10.30;99.90
55648;DHT22;45266;48.756;9.246;2022-12-18T03:31:39;-10.30;99.90
55648;DHT22;45266;48.756;9.246;2022-12-18T03:32:54;-10.30;99.90
55648;DHT22;45266;48.756;9.246;2022-12-18T03:34:09;-10.40;99.90
55648;DHT22;45266;48.756;9.246;2022-12-18T03:35:13;-10.30;99.90
55648;DHT22;45266;48.756;9.246;2022-12-18T03:36:18;-10.30;99.90
55648;DHT22;45266;48.756;9.246;2022-12-18T03:37:20;-10.20;99.90
55648;DHT22;45266;48.756;9.246;2022-12-18T03:38:22;-10.20;99.90
55648;DHT22;45266;48.756;9.246;2022-12-18T03:39:25;-10.20;99.90
55648;DHT22;45266;48.756;9.246;2022-12-18T03:40:33;-10.20;99.90
55648;DHT22;45266;48.756;9.246;2022-12-18T03:42:10;-10.20;99.90
55648;DHT22;45266;48.756;9.246;2022-12-18T03:43:34;-10.20;99.90
55648;DHT22;45266;48.756;9.246;2022-12-18T03:45:58;-10.30;99.90
55648;DHT22;45266;48.756;9.246;2022-12-18T03:47:26;-10.30;99.90
55648;DHT22;45266;48.756;9.246;2022-12-18T03:48:42;-10.30;99.90
55648;DHT22;45266;48.756;9.246;2022-12-18T03:50:56;-10.20;99.90
55648;DHT22;45266;48.756;9.246;2022-12-18T03:52:18;-10.30;99.90
55648;DHT22;45266;48.756;9.246;2022-12-18T03:53:32;-10.30;99.90
55648;DHT22;45266;48.756;9.246;2022-12-18T03:54:35;-10.40;99.90
55648;DHT22;45266;48.756;9.246;2022-12-18T03:55:38;-10.30;99.90
55648;DHT22;45266;48.756;9.246;2022-12-18T03:56:45;-10.30;99.90
55648;DHT22;45266;48.756;9.246;2022-12-18T03:57:48;-10.40;99.90
55648;DHT22;45266;48.756;9.246;2022-12-18T03:58:52;-10.40;99.90
55648;DHT22;45266;48.756;9.246;2022-12-18T03:59:58;-10.40;99.90
55648;DHT22;45266;48.756;9.246;2022-12-18T04:01:04;-10.40;99.90
55648;DHT22;45266;48.756;9.246;2022-12-18T04:02:11;-10.40;99.90
55648;DHT22;45266;48.756;9.246;2022-12-18T04:03:14;-10.40;99.90
55648;DHT22;45266;48.756;9.246;2022-12-18T04:04:18;-10.50;99.90
55648;DHT22;45266;48.756;9.246;2022-12-18T04:05:21;-10.50;99.90
55648;DHT22;45266;48.756;9.246;2022-12-18T04:06:24;-10.50;99.90
55648;DHT22;45266;48.756;9.246;2022-12-18T04:07:25;-10.60;99.90
55648;DHT22;45266;48.756;9.246;2022-12-18T04:08:28;-10.50;99.90
55648;DHT22;45266;48.756;9.246;2022-12-18T04:09:32;-10.50;99.90
55648;DHT22;45266;48.756;9.246;2022-12-18T04:10:35;-10.50;99.90
55648;DHT22;45266;48.756;9.246;2022-12-18T04:11:37;-10.50;99.90
55648;DHT22;45266;48.756;9.246;2022-12-18T04:12:39;-10.50;99.90
55648;DHT22;45266;48.756;9.246;2022-12-18T04:13:42;-10.60;99.90
55648;DHT22;45266;48.756;9.246;2022-12-18T04:14:45;-10.60;99.90
55648;DHT22;45266;48.756;9.246;2022-12-18T04:15:47;-10.60;99.90
55648;DHT22;45266;48.756;9.246;2022-12-18T04:16:49;-10.60;99.90
55648;DHT22;45266;48.756;9.246;2022-12-18T04:17:51;-10.70;99.90
55648;DHT22;45266;48.756;9.246;2022-12-18T04:18:53;-10.70;99.90
55648;DHT22;45266;48.756;9.246;2022-12-18T04:19:55;-10.70;99.90
55648;DHT22;45266;48.756;9.246;2022-12-18T04:20:57;-10.70;99.90
55648;DHT22;45266;48.756;9.246;2022-12-18T04:21:59;-10.70;99.90
55648;DHT22;45266;48.756;9.246;2022-12-18T04:23:01;-10.70;99.90
55648;DHT22;45266;48.756;9.246;2022-12-18T04:24:03;-10.80;99.90
55648;DHT22;45266;48.756;9.246;2022-12-18T04:25:05;-10.80;99.90
55648;DHT22;45266;48.756;9.246;2022-12-18T04:26:06;-10.80;99.90
55648;DHT22;45266;48.756;9.246;2022-12-18T04:27:08;-10.80;99.90
55648;DHT22;45266;48.756;9.246;2022-12-18T04:28:10;-10.80;99.90
55648;DHT22;45266;48.756;9.246;2022-12-18T04:29:12;-10.80;99.90
55648;DHT22;45266;48.756;9.246;2022-12-18T04:30:14;-10.80;99.90
55648;DHT22;45266;48.756;9.246;2022-12-18T04:31:16;-10.80;99.90
55648;DHT22;45266;48.756;9.246;2022-12-18T04:32:17;-10.80;99.90
55648;DHT22;45266;48.756;9.246;2022-12-18T04:33:19;-10.80;99.90
55648;DHT22;45266;48.756;9.246;2022-12-18T04:34:21;-10.70;99.90
55648;DHT22;45266;48.756;9.246;2022-12-18T04:35:23;-10.70;99.90
55648;DHT22;45266;48.756;9.246;2022-12-18T04:36:25;-10.70;99.90
55648;DHT22;45266;48.756;9.246;2022-12-18T04:37:26;-10.80;99.90
55648;DHT22;45266;48.756;9.246;2022-12-18T04:38:28;-10.80;99.90
55648;DHT22;45266;48.756;9.246;2022-12-18T04:39:30;-10.80;99.90
55648;DHT22;45266;48.756;9.246;2022-12-18T04:40:32;-10.80;99.90
55648;DHT22;45266;48.756;9.246;2022-12-18T04:41:34;-10.80;99.90
55648;DHT22;45266;48.756;9.246;2022-12-18T04:42:35;-10.80;99.90
55648;DHT22;45266;48.756;9.246;2022-12-18T04:43:37;-10.80;99.90
55648;DHT22;45266;48.756;9.246;2022-12-18T04:44:39;-10.80;99.90
55648;DHT22;45266;48.756;9.246;2022-12-18T04:45:41;-10.80;99.90
55648;DHT22;45266;48.756;9.246;2022-12-18T04:46:43;-10.70;99.90
55648;DHT22;45266;48.756;9.246;2022-12-18T04:47:45;-10.70;99.90
55648;DHT22;45266;48.756;9.246;2022-12-18T04:48:47;-10.60;99.90
55648;DHT22;45266;48.756;9.246;2022-12-18T04:49:48;-10.50;99.90
55648;DHT22;45266;48.756;9.246;2022-12-18T04:50:50;-10.50;99.90
55648;DHT22;45266;48.756;9.246;2022-12-18T04:51:52;-10.50;99.90
55648;DHT22;45266;48.756;9.246;2022-12-18T04:52:54;-10.40;99.90
55648;DHT22;45266;48.756;9.246;2022-12-18T04:53:56;-10.40;99.90
55648;DHT22;45266;48.756;9.246;2022-12-18T04:54:58;-10.40;99.90
55648;DHT22;45266;48.756;9.246;2022-12-18T04:56:08;-10.40;99.90
55648;DHT22;45266;48.756;9.246;2022-12-18T04:57:10;-10.50;99.90
55648;DHT22;45266;48.756;9.246;2022-12-18T04:58:12;-10.50;99.90
55648;DHT22;45266;48.756;9.246;2022-12-18T04:59:14;-10.50;99.90
55648;DHT22;45266;48.756;9.246;2022-12-18T05:00:16;-10.50;99.90
55648;DHT22;45266;48.756;9.246;2022-12-18T05:01:18;-10.50;99.90
55648;DHT22;45266;48.756;9.246;2022-12-18T05:02:20;-10.50;99.90
55648;DHT22;45266;48.756;9.246;2022-12-18T05:03:22;-10.40;99.90
55648;DHT22;45266;48.756;9.246;2022-12-18T05:04:24;-10.40;99.90
55648;DHT22;45266;48.756;9.246;2022-12-18T05:05:26;-10.40;99.90
55648;DHT22;45266;48.756;9.246;2022-12-18T05:06:28;-10.30;99.90
55648;DHT22;45266;48.756;9.246;2022-12-18T05:07:30;-10.30;99.90
55648;DHT22;45266;48.756;9.246;2022-12-18T05:08:32;-10.30;99.90
55648;DHT22;45266;48.756;9.246;2022-12-18T05:09:34;-10.30;99.90
55648;DHT22;45266;48.756;9.246;2022-12-18T05:10:36;-10.30;99.90
55648;DHT22;45266;48.756;9.246;2022-12-18T05:11:39;-10.40;99.90
55648;DHT22;45266;48.756;9.246;2022-12-18T05:12:40;-10.50;99.90
55648;DHT22;45266;48.756;9.246;2022-12-18T05:14:01;-10.50;99.90
55648;DHT22;45266;48.756;9.246;2022-12-18T05:15:03;-10.50;99.90
55648;DHT22;45266;48.756;9.246;2022-12-18T05:16:06;-10.60;99.90
55648;DHT22;45266;48.756;9.246;2022-12-18T05:17:08;-10.60;99.90
55648;DHT22;45266;48.756;9.246;2022-12-18T05:18:09;-10.70;99.90
55648;DHT22;45266;48.756;9.246;2022-12-18T05:19:11;-10.60;99.90
55648;DHT22;45266;48.756;9.246;2022-12-18T05:20:13;-10.70;99.90
55648;DHT22;45266;48.756;9.246;2022-12-18T05:21:15;-10.70;99.90
55648;DHT22;45266;48.756;9.246;2022-12-18T05:22:17;-10.70;99.90
55648;DHT22;45266;48.756;9.246;2022-12-18T05:23:20;-10.70;99.90
55648;DHT22;45266;48.756;9.246;2022-12-18T05:24:22;-10.70;99.90
55648;DHT22;45266;48.756;9.246;2022-12-18T05:25:24;-10.70;99.90
55648;DHT22;45266;48.756;9.246;2022-12-18T05:26:26;-10.70;99.90
55648;DHT22;45266;48.756;9.246;2022-12-18T05:27:27;-10.70;99.90
55648;DHT22;45266;48.756;9.246;2022-12-18T05:28:31;-10.70;99.90
55648;DHT22;45266;48.756;9.246;2022-12-18T05:29:33;-10.70;99.90
55648;DHT22;45266;48.756;9.246;2022-12-18T05:30:34;-10.70;99.90
55648;DHT22;45266;48.756;9.246;2022-12-18T05:31:36;-10.70;99.90
55648;DHT22;45266;48.756;9.246;2022-12-18T05:32:40;-10.70;99.90
55648;DHT22;45266;48.756;9.246;2022-12-18T05:33:42;-10.80;99.90
55648;DHT22;45266;48.756;9.246;2022-12-18T05:34:44;-10.80;99.90
55648;DHT22;45266;48.756;9.246;2022-12-18T05:35:57;-10.90;99.90
55648;DHT22;45266;48.756;9.246;2022-12-18T05:36:59;-10.90;99.90
55648;DHT22;45266;48.756;9.246;2022-12-18T05:38:01;-10.90;99.90
55648;DHT22;45266;48.756;9.246;2022-12-18T05:39:03;-10.90;99.90
55648;DHT22;45266;48.756;9.246;2022-12-18T05:40:05;-10.80;99.90
55648;DHT22;45266;48.756;9.246;2022-12-18T05:41:07;-10.80;99.90
55648;DHT22;45266;48.756;9.246;2022-12-18T05:42:09;-10.90;99.90
55648;DHT22;45266;48.756;9.246;2022-12-18T05:43:11;-10.90;99.90
55648;DHT22;45266;48.756;9.246;2022-12-18T05:44:21;-10.90;99.90
55648;DHT22;45266;48.756;9.246;2022-12-18T05:45:23;-10.90;99.90
55648;DHT22;45266;48.756;9.246;2022-12-18T05:46:24;-10.90;99.90
55648;DHT22;45266;48.756;9.246;2022-12-18T05:47:27;-10.90;99.90
55648;DHT22;45266;48.756;9.246;2022-12-18T05:48:30;-10.90;99.90
55648;DHT22;45266;48.756;9.246;2022-12-18T05:49:31;-11.00;99.90
55648;DHT22;45266;48.756;9.246;2022-12-18T05:50:37;-11.00;99.90
55648;DHT22;45266;48.756;9.246;2022-12-18T05:51:39;-10.90;99.90
55648;DHT22;45266;48.756;9.246;2022-12-18T05:52:41;-11.00;99.90
55648;DHT22;45266;48.756;9.246;2022-12-18T05:53:43;-10.90;99.90
55648;DHT22;45266;48.756;9.246;2022-12-18T05:54:45;-10.90;99.90
55648;DHT22;45266;48.756;9.246;2022-12-18T05:55:47;-10.90;99.90
55648;DHT22;45266;48.756;9.246;2022-12-18T05:56:49;-10.90;99.90
55648;DHT22;45266;48.756;9.246;2022-12-18T05:57:51;-10.90;99.90
55648;DHT22;45266;48.756;9.246;2022-12-18T05:58:53;-10.80;99.90
55648;DHT22;45266;48.756;9.246;2022-12-18T05:59:55;-10.90;99.90
55648;DHT22;45266;48.756;9.246;2022-12-18T06:00:57;-10.80;99.90
55648;DHT22;45266;48.756;9.246;2022-12-18T06:01:59;-10.80;99.90
55648;DHT22;45266;48.756;9.246;2022-12-18T06:03:01;-10.80;99.90
55648;DHT22;45266;48.756;9.246;2022-12-18T06:04:03;-10.80;99.90
55648;DHT22;45266;48.756;9.246;2022-12-18T06:05:06;-10.80;99.90
55648;DHT22;45266;48.756;9.246;2022-12-18T06:06:19;-10.80;99.90
55648;DHT22;45266;48.756;9.246;2022-12-18T06:07:21;-10.80;99.90
55648;DHT22;45266;48.756;9.246;2022-12-18T06:08:23;-10.80;99.90
55648;DHT22;45266;48.756;9.246;2022-12-18T06:09:25;-10.80;99.90
55648;DHT22;45266;48.756;9.246;2022-12-18T06:10:27;-10.80;99.90
55648;DHT22;45266;48.756;9.246;2022-12-18T06:11:28;-10.80;99.90
55648;DHT22;45266;48.756;9.246;2022-12-18T06:12:30;-10.80;99.90
55648;DHT22;45266;48.756;9.246;2022-12-18T06:13:32;-10.80;99.90
55648;DHT22;45266;48.756;9.246;2022-12-18T06:14:34;-10.90;99.90
55648;DHT22;45266;48.756;9.246;2022-12-18T06:15:36;-10.90;99.90
55648;DHT22;45266;48.756;9.246;2022-12-18T06:16:38;-10.90;99.90
55648;DHT22;45266;48.756;9.246;2022-12-18T06:17:40;-10.90;99.90
55648;DHT22;45266;48.756;9.246;2022-12-18T06:18:42;-10.90;99.90
55648;DHT22;45266;48.756;9.246;2022-12-18T06:19:44;-10.90;99.90
55648;DHT22;45266;48.756;9.246;2022-12-18T06:20:53;-10.90;99.90
55648;DHT22;45266;48.756;9.246;2022-12-18T06:21:55;-10.90;99.90
55648;DHT22;45266;48.756;9.246;2022-12-18T06:22:59;-10.90;99.90
55648;DHT22;45266;48.756;9.246;2022-12-18T06:24:01;-10.90;99.90
55648;DHT22;45266;48.756;9.246;2022-12-18T06:25:03;-10.80;99.90
55648;DHT22;45266;48.756;9.246;2022-12-18T06:26:07;-10.80;99.90
55648;DHT22;45266;48.756;9.246;2022-12-18T06:27:09;-10.70;99.90
55648;DHT22;45266;48.756;9.246;2022-12-18T06:28:11;-10.70;99.90
55648;DHT22;45266;48.756;9.246;2022-12-18T06:29:13;-10.80;99.90
55648;DHT22;45266;48.756;9.246;2022-12-18T06:30:15;-10.80;99.90
55648;DHT22;45266;48.756;9.246;2022-12-18T06:31:17;-10.80;99.90
55648;DHT22;45266;48.756;9.246;2022-12-18T06:32:18;-10.90;99.90
55648;DHT22;45266;48.756;9.246;2022-12-18T06:33:20;-10.90;99.90
55648;DHT22;45266;48.756;9.246;2022-12-18T06:34:22;-11.00;99.90
55648;DHT22;45266;48.756;9.246;2022-12-18T06:35:24;-11.00;99.90
55648;DHT22;45266;48.756;9.246;2022-12-18T06:36:25;-11.10;99.90
55648;DHT22;45266;48.756;9.246;2022-12-18T06:37:27;-11.10;99.90
55648;DHT22;45266;48.756;9.246;2022-12-18T06:38:30;-11.20;99.90
55648;DHT22;45266;48.756;9.246;2022-12-18T06:39:32;-11.20;99.90
55648;DHT22;45266;48.756;9.246;2022-12-18T06:40:34;-11.30;99.90
55648;DHT22;45266;48.756;9.246;2022-12-18T06:41:38;-11.30;99.90
55648;DHT22;45266;48.756;9.246;2022-12-18T06:42:40;-11.30;99.90
55648;DHT22;45266;48.756;9.246;2022-12-18T06:43:43;-11.30;99.90
55648;DHT22;45266;48.756;9.246;2022-12-18T06:44:45;-11.30;99.90
55648;DHT22;45266;48.756;9.246;2022-12-18T06:45:46;-11.30;99.90
55648;DHT22;45266;48.756;9.246;2022-12-18T06:46:55;-11.30;99.90
55648;DHT22;45266;48.756;9.246;2022-12-18T06:47:57;-11.30;99.90
55648;DHT22;45266;48.756;9.246;2022-12-18T06:48:59;-11.30;99.90
55648;DHT22;45266;48.756;9.246;2022-12-18T06:50:01;-11.30;99.90
55648;DHT22;45266;48.756;9.246;2022-12-18T06:51:03;-11.30;99.90
55648;DHT22;45266;48.756;9.246;2022-12-18T06:52:05;-11.30;99.90
55648;DHT22;45266;48.756;9.246;2022-12-18T06:53:07;-11.30;99.90
55648;DHT22;45266;48.756;9.246;2022-12-18T06:54:08;-11.30;99.90
55648;DHT22;45266;48.756;9.246;2022-12-18T06:55:11;-11.30;99.90
55648;DHT22;45266;48.756;9.246;2022-12-18T06:56:13;-11.20;99.90
55648;DHT22;45266;48.756;9.246;2022-12-18T06:57:15;-11.20;99.90
55648;DHT22;45266;48.756;9.246;2022-12-18T06:58:17;-11.20;99.90
55648;DHT22;45266;48.756;9.246;2022-12-18T06:59:19;-11.20;99.90